Time;durP1;ratioP1;P1;durP2;ratioP2;P2;SDS_P1;SDS_P2;PMS_P1;PMS_P2;Temp;Humidity;BMP_temperature;BMP_pressure;BME280_temperature;BME280_humidity;BME280_pressure;Samples;Min_cycle;Max_cycle;Signal;HPM_P1;HPM_P2
2023/04/21 00:00:36;;;;;;;19.02;11.77;;;;;;;-146.25;100.00;52191.81;2072186;28;20165;-72
2023/04/21 00:01:38;;;;;;;19.60;12.20;;;;;;;-146.25;100.00;52224.25;2071604;28;36468;-72
2023/04/21 00:02:40;;;;;;;20.08;12.38;;;;;;;-146.25;100.00;52250.59;2079433;28;33955;-72
2023/04/21 00:03:42;;;;;;;23.50;12.60;;;;;;;-146.25;100.00;52264.78;2079941;28;33133;-72
2023/04/21 00:04:45;;;;;;;22.33;12.98;;;;;;;-146.25;100.00;52242.50;2072175;28;36258;-72
2023/04/21 00:05:47;;;;;;;19.67;11.85;;;;;;;-146.25;100.00;52222.22;2072713;28;20884;-73
2023/04/21 00:06:49;;;;;;;18.13;11.85;;;;;;;-146.25;100.00;52208.03;2072126;28;30577;-72
2023/04/21 00:07:51;;;;;;;20.20;12.25;;;;;;;-146.25;100.00;52203.97;2072411;28;30139;-73
2023/04/21 00:08:53;;;;;;;21.00;12.80;;;;;;;-146.25;100.00;52210.03;2072474;28;33075;-72
2023/04/21 00:09:55;;;;;;;19.67;11.95;;;;;;;-146.25;100.00;52234.38;2072709;28;35021;-73
2023/04/21 00:10:57;;;;;;;15.35;11.80;;;;;;;-146.25;100.00;52234.38;2072074;28;35263;-72
2023/04/21 00:11:59;;;;;;;18.98;12.60;;;;;;;-146.25;100.00;52238.44;2072414;28;27879;-72
2023/04/21 00:13:00;;;;;;;17.92;12.27;;;;;;;-146.25;100.00;52240.47;2071974;28;37142;-72
2023/04/21 00:14:02;;;;;;;17.38;11.45;;;;;;;-146.25;100.00;52252.63;2071226;28;35733;-71
2023/04/21 00:15:05;;;;;;;19.42;12.52;;;;;;;-146.25;100.00;52240.47;2071756;28;34473;-72
2023/04/21 00:16:07;;;;;;;21.02;12.50;;;;;;;-146.25;100.00;52248.56;2071432;28;39910;-72
2023/04/21 00:17:09;;;;;;;20.48;12.25;;;;;;;-146.25;100.00;52226.25;2072276;28;34995;-73
2023/04/21 00:18:12;;;;;;;19.65;11.73;;;;;;;-146.25;100.00;52181.66;2072187;28;31590;-73
2023/04/21 00:19:14;;;;;;;24.05;12.52;;;;;;;-146.25;100.00;52242.50;2072309;28;32788;-72
2023/04/21 00:20:15;;;;;;;19.30;12.02;;;;;;;-146.25;100.00;52218.16;2072280;28;37770;-72
2023/04/21 00:21:17;;;;;;;18.63;12.57;;;;;;;-146.25;100.00;52195.84;2072070;28;33011;-73
2023/04/21 00:22:21;;;;;;;20.42;12.52;;;;;;;-146.25;100.00;52212.06;2071846;28;30856;-72
2023/04/21 00:23:23;;;;;;;18.48;11.63;;;;;;;-146.25;100.00;52195.84;2072023;28;37662;-72
2023/04/21 00:24:25;;;;;;;20.15;11.80;;;;;;;-146.25;100.00;52242.50;2071244;28;36259;-72
2023/04/21 00:25:27;;;;;;;21.42;12.52;;;;;;;-146.25;100.00;52250.59;2071460;28;35154;-72
2023/04/21 00:26:29;;;;;;;21.08;13.25;;;;;;;-146.25;100.00;52232.34;2079198;28;36451;-72
2023/04/21 00:27:31;;;;;;;21.20;12.65;;;;;;;-146.25;100.00;52230.31;2072816;28;20871;-72
2023/04/21 00:28:32;;;;;;;21.38;11.73;;;;;;;-146.25;100.00;52234.38;2072004;28;30581;-72
2023/04/21 00:29:34;;;;;;;20.30;12.75;;;;;;;-146.25;100.00;52254.66;2072457;28;28506;-72
2023/04/21 00:30:36;;;;;;;22.08;12.90;;;;;;;-146.25;100.00;52208.03;2071366;28;35549;-72
2023/04/21 00:31:38;;;;;;;19.40;12.63;;;;;;;-146.25;100.00;52220.19;2071991;28;20112;-71
2023/04/21 00:32:40;;;;;;;19.73;12.27;;;;;;;-146.25;100.00;52234.38;2072356;28;27773;-72
2023/04/21 00:33:42;;;;;;;21.52;12.43;;;;;;;-146.25;100.00;52285.06;2072376;28;22501;-72
2023/04/21 00:34:44;;;;;;;19.42;12.07;;;;;;;-146.25;100.00;52226.25;2072466;28;23921;-72
2023/04/21 00:35:46;;;;;;;21.88;11.82;;;;;;;-146.25;100.00;52246.53;2080143;28;20048;-72
2023/04/21 00:36:51;;;;;;;22.02;13.23;;;;;;;-146.25;100.00;52226.25;2071611;28;20046;-72
2023/04/21 00:37:52;;;;;;;19.30;12.20;;;;;;;-146.25;100.00;52234.38;2072038;28;20042;-72
2023/04/21 00:38:54;;;;;;;19.05;12.27;;;;;;;-146.25;100.00;52270.88;2080131;28;20041;-72
2023/04/21 00:39:57;;;;;;;20.42;12.15;;;;;;;-146.25;100.00;52218.16;2072315;28;20047;-72
2023/04/21 00:40:59;;;;;;;19.65;12.32;;;;;;;-146.25;100.00;52242.50;2072689;28;20034;-72
2023/04/21 00:42:01;;;;;;;18.88;12.27;;;;;;;-146.25;100.00;52256.69;2072277;28;20132;-72
2023/04/21 00:43:06;;;;;;;18.15;12.60;;;;;;;-146.25;100.00;52266.81;2071395;28;20054;-72
2023/04/21 00:44:09;;;;;;;24.63;12.75;;;;;;;-146.25;100.00;52222.22;2071433;28;30702;-72
2023/04/21 00:45:14;;;;;;;16.20;11.45;;;;;;;-146.25;100.00;52226.25;2072547;28;20042;-72
2023/04/21 00:46:18;;;;;;;19.15;12.20;;;;;;;-146.25;100.00;52203.97;2072187;28;23731;-71
2023/04/21 00:47:20;;;;;;;21.27;12.38;;;;;;;-146.25;100.00;52230.31;2072105;28;29113;-72
2023/04/21 00:48:23;;;;;;;17.80;11.88;;;;;;;-146.25;100.00;52218.16;2071951;28;20077;-71
2023/04/21 00:49:25;;;;;;;20.08;11.95;;;;;;;-146.25;100.00;52226.25;2072404;28;20026;-71
2023/04/21 00:50:27;;;;;;;19.20;11.85;;;;;;;-146.25;100.00;52238.44;2071152;28;24939;-74
2023/04/21 00:51:31;;;;;;;18.15;11.43;;;;;;;-146.25;100.00;52246.53;2071501;28;27805;-72
2023/04/21 00:52:34;;;;;;;18.60;11.68;;;;;;;-146.25;100.00;52264.78;2071873;28;20037;-72
2023/04/21 00:53:36;;;;;;;18.38;11.05;;;;;;;-146.25;100.00;52218.16;2071372;28;29343;-72
2023/04/21 00:54:38;;;;;;;21.13;12.73;;;;;;;-146.25;100.00;52240.47;2072988;28;20041;-71
2023/04/21 00:55:42;;;;;;;19.63;10.93;;;;;;;-146.25;100.00;52230.31;2071423;28;20039;-72
2023/04/21 00:56:44;;;;;;;20.58;11.40;;;;;;;-146.25;100.00;52244.50;2072148;28;23954;-71
2023/04/21 00:57:47;;;;;;;19.00;11.98;;;;;;;-146.25;100.00;52232.34;2071765;28;35441;-71
2023/04/21 00:58:50;;;;;;;18.15;12.18;;;;;;;-146.25;100.00;52256.69;2071285;28;30751;-72
2023/04/21 00:59:51;;;;;;;17.70;11.13;;;;;;;-146.25;100.00;52218.16;2071500;28;26518;-72
2023/04/21 01:00:53;;;;;;;18.60;11.73;;;;;;;-146.25;100.00;52232.34;2079471;28;29183;-72
2023/04/21 01:01:55;;;;;;;17.88;11.23;;;;;;;-146.25;100.00;52242.50;2072067;28;29046;-72
2023/04/21 01:02:59;;;;;;;20.98;11.10;;;;;;;-146.25;100.00;52222.22;2071423;28;32291;-71
2023/04/21 01:04:03;;;;;;;18.98;11.07;;;;;;;-146.25;100.00;52191.81;2070980;28;29192;-71
2023/04/21 01:05:10;;;;;;;20.13;11.55;;;;;;;-146.25;100.00;52226.25;2071865;28;20859;-71
2023/04/21 01:06:17;;;;;;;19.20;11.93;;;;;;;-146.25;99.92;52230.31;2072057;28;20935;-71
2023/04/21 01:07:19;;;;;;;17.35;11.25;;;;;;;-146.25;100.00;52218.16;2071149;28;30789;-71
2023/04/21 01:08:21;;;;;;;18.45;11.27;;;;;;;-146.25;99.94;52240.47;2072127;28;22575;-72
2023/04/21 01:09:23;;;;;;;19.65;11.18;;;;;;;-146.25;99.95;52250.59;2072012;28;31774;-72
2023/04/21 01:10:25;;;;;;;17.17;11.23;;;;;;;-146.25;100.00;52230.31;2079509;28;27760;-72
2023/04/21 01:11:27;;;;;;;19.05;11.63;;;;;;;-146.25;100.00;52246.53;2070896;28;25295;-72
2023/04/21 01:12:29;;;;;;;17.50;10.63;;;;;;;-146.25;100.00;52252.63;2071538;28;26129;-71
2023/04/21 01:13:32;;;;;;;19.45;11.07;;;;;;;-146.25;99.97;52185.72;2072223;28;20121;-72
2023/04/21 01:14:39;;;;;;;15.95;11.13;;;;;;;-146.25;99.90;52264.78;2079740;28;20053;-72
2023/04/21 01:15:41;;;;;;;16.35;11.18;;;;;;;-146.25;99.79;52208.03;2079551;28;26786;-72
2023/04/21 01:16:43;;;;;;;19.40;11.05;;;;;;;-146.25;99.85;52230.31;2071764;28;26440;-72
2023/04/21 01:17:45;;;;;;;19.27;10.93;;;;;;;-146.25;99.57;52222.22;2071416;28;30554;-72
2023/04/21 01:18:48;;;;;;;17.50;10.77;;;;;;;-146.25;99.77;52230.31;2072259;28;20955;-72
2023/04/21 01:19:55;;;;;;;18.48;10.75;;;;;;;-146.25;99.50;52242.50;2079437;28;27526;-72
2023/04/21 01:20:57;;;;;;;19.60;10.35;;;;;;;-146.25;99.87;52248.56;2079387;28;30377;-71
2023/04/21 01:22:00;;;;;;;16.02;11.35;;;;;;;-146.25;100.00;52242.50;2071300;28;20084;-72
2023/04/21 01:23:04;;;;;;;18.08;10.82;;;;;;;-146.25;99.96;52230.31;2071556;28;20038;-71
2023/04/21 01:24:06;;;;;;;19.60;11.25;;;;;;;-146.25;99.80;52224.25;2079412;28;27501;-71
2023/04/21 01:25:10;;;;;;;16.90;10.25;;;;;;;-146.25;100.00;52206.00;2071061;28;33674;-72
2023/04/21 01:26:12;;;;;;;15.63;10.43;;;;;;;-146.25;100.00;52210.03;2071900;28;20050;-72
2023/04/21 01:27:19;;;;;;;17.23;11.18;;;;;;;-146.25;100.00;52236.41;2071819;28;20042;-72
2023/04/21 01:28:23;;;;;;;19.70;10.65;;;;;;;-146.25;100.00;52266.81;2071509;28;37563;-72
2023/04/21 01:29:31;;;;;;;18.05;11.07;;;;;;;-146.25;100.00;52206.00;2079633;28;20951;-72
2023/04/21 01:30:33;;;;;;;21.55;11.90;;;;;;;-146.25;100.00;52242.50;2078924;28;28796;-72
2023/04/21 01:31:35;;;;;;;18.20;11.63;;;;;;;-146.25;100.00;52203.97;2072103;28;26387;-72
2023/04/21 01:32:39;;;;;;;17.95;11.43;;;;;;;-146.25;100.00;52242.50;2070331;28;33360;-72
2023/04/21 01:33:42;;;;;;;17.42;11.07;;;;;;;-146.25;100.00;52252.63;2071760;28;20161;-71
2023/04/21 01:34:45;;;;;;;17.40;11.52;;;;;;;-146.25;100.00;52260.72;2079089;28;31202;-72
2023/04/21 01:35:46;;;;;;;15.93;11.07;;;;;;;-146.25;100.00;52240.47;2071027;28;31357;-72
2023/04/21 01:36:52;;;;;;;19.17;11.48;;;;;;;-146.25;100.00;52214.09;2071890;28;20046;-72
2023/04/21 01:37:56;;;;;;;17.25;12.07;;;;;;;-146.25;100.00;52291.16;2079471;28;20046;-72
2023/04/21 01:38:58;;;;;;;17.70;11.60;;;;;;;-146.25;100.00;52274.94;2070785;28;26670;-71
2023/04/21 01:40:04;;;;;;;17.55;11.18;;;;;;;-146.25;100.00;52264.78;2071917;28;25969;-72
2023/04/21 01:41:08;;;;;;;21.65;12.70;;;;;;;-146.25;100.00;52242.50;2071251;28;20879;-71
2023/04/21 01:42:10;;;;;;;15.90;11.10;;;;;;;-146.25;100.00;52232.34;2071858;28;20139;-72
2023/04/21 01:43:14;;;;;;;18.42;11.18;;;;;;;-146.25;100.00;52222.22;2079570;28;20057;-72
2023/04/21 01:44:16;;;;;;;21.38;11.75;;;;;;;-146.25;100.00;52193.81;2079580;28;20120;-72
2023/04/21 01:45:18;;;;;;;18.67;11.13;;;;;;;-146.25;100.00;52226.25;2079332;28;29249;-72
2023/04/21 01:46:20;;;;;;;18.08;10.77;;;;;;;-146.25;100.00;52268.84;2071145;28;29922;-72
2023/04/21 01:47:24;;;;;;;15.63;11.38;;;;;;;-146.25;100.00;52234.38;2070904;28;29822;-71
2023/04/21 01:48:25;;;;;;;17.65;11.80;;;;;;;-146.25;100.00;52212.06;2071350;28;20045;-71
2023/04/21 01:49:29;;;;;;;18.58;11.43;;;;;;;-146.25;100.00;52238.44;2071864;28;20053;-71
2023/04/21 01:50:31;;;;;;;19.05;11.90;;;;;;;-146.25;100.00;52197.88;2078665;28;34189;-71
2023/04/21 01:51:33;;;;;;;20.38;12.15;;;;;;;-146.25;100.00;52246.53;2071520;28;26201;-71
2023/04/21 01:52:34;;;;;;;19.70;12.35;;;;;;;-146.25;100.00;52274.94;2071390;28;28354;-71
2023/04/21 01:53:36;;;;;;;17.70;11.70;;;;;;;-146.25;100.00;52238.44;2079570;28;20878;-71
2023/04/21 01:54:38;;;;;;;19.63;12.75;;;;;;;-146.25;100.00;52206.00;2070768;28;31874;-72
2023/04/21 01:55:41;;;;;;;17.38;12.13;;;;;;;-146.25;100.00;52220.19;2071745;28;20038;-71
2023/04/21 01:56:45;;;;;;;19.50;12.23;;;;;;;-146.25;100.00;52232.34;2071373;28;20853;-71
2023/04/21 01:57:49;;;;;;;18.70;12.15;;;;;;;-146.25;100.00;52210.03;2072060;28;20042;-71
2023/04/21 01:58:52;;;;;;;19.25;12.05;;;;;;;-146.25;100.00;52246.53;2071539;28;20085;-71
2023/04/21 01:59:54;;;;;;;22.83;12.70;;;;;;;-146.25;100.00;52214.09;2071304;28;20039;-71
2023/04/21 02:00:55;;;;;;;22.23;13.45;;;;;;;-146.25;100.00;52252.63;2070630;28;20039;-71
2023/04/21 02:01:59;;;;;;;21.13;13.25;;;;;;;-146.25;100.00;52250.59;2071869;28;20051;-71
2023/04/21 02:03:02;;;;;;;20.48;12.85;;;;;;;-146.25;99.87;52242.50;2071999;28;20034;-71
2023/04/21 02:04:04;;;;;;;24.08;13.05;;;;;;;-146.25;100.00;52220.19;2071930;28;30023;-72
2023/04/21 02:05:07;;;;;;;18.38;13.15;;;;;;;-146.25;100.00;52222.22;2071225;28;20035;-71
2023/04/21 02:06:08;;;;;;;22.02;13.70;;;;;;;-146.25;100.00;52244.50;2070745;28;26127;-72
2023/04/21 02:07:10;;;;;;;20.67;13.15;;;;;;;-146.25;100.00;52262.75;2070649;28;24613;-73
2023/04/21 02:08:18;;;;;;;23.85;13.45;;;;;;;-146.25;100.00;52214.09;2071094;28;20046;-74
2023/04/21 02:09:20;;;;;;;24.17;13.60;;;;;;;-146.25;100.00;52246.53;2063963;28;20043;-74
2023/04/21 02:10:22;;;;;;;23.08;13.10;;;;;;;-146.25;100.00;52238.44;2071866;28;20039;-72
2023/04/21 02:11:24;;;;;;;19.55;13.68;;;;;;;-146.25;99.81;52258.72;2070749;28;32523;-71
2023/04/21 02:12:26;;;;;;;23.20;14.75;;;;;;;-146.25;99.96;52236.41;2070696;28;35136;-72
2023/04/21 02:13:28;;;;;;;23.48;14.57;;;;;;;-146.25;100.00;52242.50;2071203;28;20042;-71
2023/04/21 02:14:30;;;;;;;23.33;13.40;;;;;;;-146.25;99.93;52266.81;2070979;28;31800;-72
2023/04/21 02:15:32;;;;;;;22.13;13.68;;;;;;;-146.25;99.90;52242.50;2071273;28;20038;-71
2023/04/21 02:16:37;;;;;;;20.92;13.55;;;;;;;-146.25;99.87;52244.50;2063109;28;26283;-72
2023/04/21 02:17:38;;;;;;;22.52;13.63;;;;;;;-146.25;99.77;52234.38;2071052;28;36994;-72
2023/04/21 02:18:41;;;;;;;22.77;13.73;;;;;;;-146.25;99.64;52268.84;2079485;28;20046;-71
2023/04/21 02:19:46;;;;;;;23.85;14.57;;;;;;;-146.25;99.85;52270.88;2071792;28;26640;-71
2023/04/21 02:20:50;;;;;;;21.52;13.50;;;;;;;-146.25;99.87;52220.19;2062506;28;27170;-72
2023/04/21 02:21:52;;;;;;;19.58;13.30;;;;;;;-146.25;99.93;52216.13;2062892;28;20270;-71
2023/04/21 02:22:55;;;;;;;25.23;14.15;;;;;;;-146.25;99.89;52272.91;2071331;28;20076;-72
2023/04/21 02:23:57;;;;;;;22.10;13.70;;;;;;;-146.25;99.80;52228.28;2079545;28;31610;-72
2023/04/21 02:25:00;;;;;;;18.58;12.50;;;;;;;-146.25;99.90;52238.44;2071473;28;20165;-72
2023/04/21 02:26:01;;;;;;;23.65;14.18;;;;;;;-146.25;99.47;52262.75;2071281;28;21553;-72
2023/04/21 02:27:06;;;;;;;21.90;13.55;;;;;;;-146.25;99.62;52270.88;2072053;28;20088;-72
2023/04/21 02:28:07;;;;;;;22.17;13.43;;;;;;;-146.25;99.38;52250.59;2071215;28;26213;-72
2023/04/21 02:29:09;;;;;;;21.67;13.90;;;;;;;-146.25;99.66;52210.03;2079447;28;21323;-72
2023/04/21 02:30:12;;;;;;;24.48;14.10;;;;;;;-146.25;99.67;52268.84;2079388;28;20868;-72
2023/04/21 02:31:17;;;;;;;20.58;13.57;;;;;;;-146.25;99.70;52242.50;2072203;28;20042;-72
2023/04/21 02:32:21;;;;;;;20.33;13.80;;;;;;;-146.25;99.84;52234.38;2071825;28;20880;-72
2023/04/21 02:33:27;;;;;;;21.42;13.40;;;;;;;-146.25;99.78;52242.50;2071229;28;20050;-71
2023/04/21 02:34:28;;;;;;;22.45;14.20;;;;;;;-146.25;99.97;52234.38;2070976;28;30889;-72
2023/04/21 02:35:32;;;;;;;20.25;13.27;;;;;;;-146.25;100.00;52197.88;2079048;28;30800;-72
2023/04/21 02:36:34;;;;;;;23.67;12.77;;;;;;;-146.25;100.00;52220.19;2071088;28;20046;-72
2023/04/21 02:37:36;;;;;;;23.33;13.00;;;;;;;-146.25;99.82;52214.09;2070277;28;31999;-72
2023/04/21 02:38:41;;;;;;;21.52;13.18;;;;;;;-146.25;100.00;52236.41;2070826;28;21521;-72
2023/04/21 02:39:44;;;;;;;21.17;13.70;;;;;;;-146.25;99.80;52236.41;2071361;28;20035;-72
2023/04/21 02:40:49;;;;;;;21.73;13.05;;;;;;;-146.25;99.88;52252.63;2063841;28;20043;-72
2023/04/21 02:41:52;;;;;;;22.88;12.93;;;;;;;-146.25;99.80;52266.81;2063981;28;20038;-72
2023/04/21 02:42:54;;;;;;;20.98;13.05;;;;;;;-146.25;99.72;52232.34;2071336;28;20046;-72
2023/04/21 02:43:56;;;;;;;20.02;13.00;;;;;;;-146.25;99.87;52214.09;2079094;28;20038;-72
2023/04/21 02:44:58;;;;;;;21.70;12.85;;;;;;;-146.25;99.91;52236.41;2071599;28;26162;-72
2023/04/21 02:46:07;;;;;;;18.65;12.90;;;;;;;-146.25;99.82;52236.41;2072333;28;20161;-72
2023/04/21 02:47:09;;;;;;;25.05;12.88;;;;;;;-146.25;99.84;52266.81;2073479;28;23129;-72
2023/04/21 02:48:13;;;;;;;21.33;13.07;;;;;;;-146.25;99.95;52242.50;2080081;28;30576;-72
2023/04/21 02:49:15;;;;;;;19.92;13.15;;;;;;;-146.25;100.00;52228.28;2072336;28;36286;-72
2023/04/21 02:50:17;;;;;;;20.63;12.65;;;;;;;-146.25;100.00;52236.41;2073532;28;20882;-72
2023/04/21 02:51:19;;;;;;;18.20;11.93;;;;;;;-146.25;100.00;52254.66;2080545;28;20046;-72
2023/04/21 02:52:21;;;;;;;20.67;12.95;;;;;;;-146.25;100.00;52226.25;2072106;28;30868;-72
2023/04/21 02:53:23;;;;;;;20.60;12.45;;;;;;;-146.25;100.00;52234.38;2072110;28;29583;-73
2023/04/21 02:54:27;;;;;;;20.60;12.18;;;;;;;-146.25;99.99;52222.22;2072452;28;20047;-72
2023/04/21 02:55:29;;;;;;;21.17;13.23;;;;;;;-146.25;99.57;52262.75;2072282;28;31093;-73
2023/04/21 02:56:33;;;;;;;20.33;12.63;;;;;;;-146.25;99.87;52260.72;2072772;28;20185;-72
2023/04/21 02:57:35;;;;;;;17.67;12.07;;;;;;;-146.25;100.00;52230.31;2072382;28;31007;-72
2023/04/21 02:58:37;;;;;;;21.00;12.38;;;;;;;-146.25;100.00;52244.50;2072684;28;25881;-72
2023/04/21 02:59:39;;;;;;;18.10;11.65;;;;;;;-146.25;100.00;52242.50;2072273;28;20050;-73
2023/04/21 03:00:41;;;;;;;18.88;12.77;;;;;;;-146.25;99.92;52248.56;2072658;28;20380;-72
2023/04/21 03:01:43;;;;;;;20.40;12.07;;;;;;;-146.25;99.90;52264.78;2071335;28;31348;-72
2023/04/21 03:02:45;;;;;;;18.73;12.30;;;;;;;-146.25;99.75;52234.38;2072185;28;33694;-72
2023/04/21 03:03:46;;;;;;;16.40;11.73;;;;;;;-146.25;99.66;52307.38;2072777;28;24627;-71
2023/04/21 03:04:48;;;;;;;22.42;12.23;;;;;;;-146.25;99.70;52250.59;2072398;28;20901;-72
2023/04/21 03:05:56;;;;;;;22.05;12.85;;;;;;;-146.25;99.37;52258.72;2072370;28;25608;-72
2023/04/21 03:06:58;;;;;;;20.27;12.13;;;;;;;-146.25;99.52;52272.91;2071702;28;28807;-72
2023/04/21 03:08:02;;;;;;;18.17;11.50;;;;;;;-146.25;99.76;52230.31;2071800;28;31776;-72
2023/04/21 03:09:04;;;;;;;19.92;11.60;;;;;;;-146.25;99.70;52291.16;2080479;28;20038;-73
2023/04/21 03:10:06;;;;;;;17.83;11.43;;;;;;;-146.25;99.45;52250.59;2072659;28;20053;-72
2023/04/21 03:11:08;;;;;;;18.60;12.15;;;;;;;-146.25;99.46;52285.06;2080234;28;22617;-72
2023/04/21 03:12:10;;;;;;;19.77;11.45;;;;;;;-146.25;99.36;52222.22;2071772;28;34050;-72
2023/04/21 03:13:12;;;;;;;19.48;11.13;;;;;;;-146.25;99.30;52256.69;2072247;28;25247;-72
2023/04/21 03:14:13;;;;;;;22.35;11.27;;;;;;;-146.25;99.06;52232.34;2072467;28;29959;-72
2023/04/21 03:15:15;;;;;;;19.13;11.70;;;;;;;-146.25;99.21;52246.53;2071909;28;29990;-72
2023/04/21 03:16:18;;;;;;;17.70;11.80;;;;;;;-146.25;99.37;52232.34;2072103;28;28341;-72
2023/04/21 03:17:22;;;;;;;19.23;10.73;;;;;;;-146.25;99.00;52266.81;2072150;28;31103;-73
2023/04/21 03:18:25;;;;;;;15.23;10.90;;;;;;;-146.25;98.85;52252.63;2072424;28;20121;-72
2023/04/21 03:19:26;;;;;;;17.65;11.50;;;;;;;-146.25;98.86;52246.53;2072736;28;20094;-72
2023/04/21 03:20:28;;;;;;;17.17;11.50;;;;;;;-146.25;99.05;52244.50;2079828;28;25133;-72
2023/04/21 03:21:30;;;;;;;17.10;11.20;;;;;;;-146.25;98.68;52264.78;2080318;28;31421;-72
2023/04/21 03:22:36;;;;;;;19.30;11.75;;;;;;;-146.25;98.85;52250.59;2071516;28;23422;-72
2023/04/21 03:23:38;;;;;;;16.58;10.55;;;;;;;-146.25;99.00;52250.59;2072855;28;20043;-72
2023/04/21 03:24:42;;;;;;;18.48;10.05;;;;;;;-146.25;98.91;52226.25;2072183;28;20124;-72
2023/04/21 03:25:44;;;;;;;21.38;11.38;;;;;;;-146.25;98.85;52246.53;2072740;28;20046;-72
2023/04/21 03:26:46;;;;;;;21.63;10.75;;;;;;;-146.25;98.75;52252.63;2072253;28;20050;-72
2023/04/21 03:27:49;;;;;;;17.08;10.70;;;;;;;-146.25;98.92;52262.75;2071725;28;27563;-72
2023/04/21 03:28:51;;;;;;;18.85;10.93;;;;;;;-146.25;98.80;52250.59;2072490;28;20038;-72
2023/04/21 03:29:53;;;;;;;16.67;10.73;;;;;;;-146.25;98.60;52248.56;2072581;28;24733;-72
2023/04/21 03:30:55;;;;;;;14.15;10.63;;;;;;;-146.25;98.29;52262.75;2072321;28;26351;-72
2023/04/21 03:31:56;;;;;;;14.70;10.15;;;;;;;-146.25;98.42;52268.84;2072017;28;27320;-72
2023/04/21 03:32:59;;;;;;;19.83;10.65;;;;;;;-146.25;98.45;52262.75;2080569;28;20946;-72
2023/04/21 03:34:01;;;;;;;16.98;11.05;;;;;;;-146.25;98.58;52250.59;2080504;28;20077;-72
2023/04/21 03:35:03;;;;;;;17.25;10.63;;;;;;;-146.25;98.69;52256.69;2080236;28;20051;-72
2023/04/21 03:36:08;;;;;;;14.90;10.88;;;;;;;-146.25;98.46;52240.47;2072021;28;20038;-72
2023/04/21 03:37:17;;;;;;;16.98;10.75;;;;;;;-146.25;98.60;52258.72;2071851;28;20058;-72
2023/04/21 03:38:19;;;;;;;20.08;11.10;;;;;;;-146.25;98.72;52274.94;2072548;28;20132;-72
2023/04/21 03:39:23;;;;;;;17.33;11.15;;;;;;;-146.25;98.44;52242.50;2064680;28;20043;-72
2023/04/21 03:40:26;;;;;;;16.02;10.38;;;;;;;-146.25;98.79;52258.72;2072612;28;20046;-72
2023/04/21 03:41:28;;;;;;;14.52;10.88;;;;;;;-146.25;98.75;52226.25;2080343;28;20046;-72
2023/04/21 03:42:30;;;;;;;15.70;10.40;;;;;;;-146.25;98.77;52210.03;2072822;28;25526;-72
2023/04/21 03:43:35;;;;;;;17.55;10.18;;;;;;;-146.25;98.87;52250.59;2080580;28;20188;-72
2023/04/21 03:44:39;;;;;;;17.98;10.27;;;;;;;-146.25;98.73;52234.38;2072009;28;20112;-72
2023/04/21 03:45:40;;;;;;;24.80;10.80;;;;;;;-146.25;98.71;52226.25;2071699;28;33891;-72
2023/04/21 03:46:42;;;;;;;23.05;10.73;;;;;;;-146.25;98.92;52258.72;2072483;28;30539;-72
2023/04/21 03:47:44;;;;;;;16.55;10.77;;;;;;;-146.25;98.90;52254.66;2079953;28;29154;-72
2023/04/21 03:48:48;;;;;;;17.95;10.05;;;;;;;-146.25;99.00;52234.38;2079966;28;33835;-72
2023/04/21 03:49:50;;;;;;;18.05;10.70;;;;;;;-146.25;99.16;52256.69;2072271;28;37958;-72
2023/04/21 03:50:54;;;;;;;16.83;10.90;;;;;;;-146.25;98.93;52238.44;2072519;28;33765;-72
2023/04/21 03:51:55;;;;;;;16.48;10.85;;;;;;;-146.25;99.24;52291.16;2071373;28;34919;-72
2023/04/21 03:52:57;;;;;;;16.85;10.48;;;;;;;-146.25;99.14;52274.94;2071353;28;32462;-72
2023/04/21 03:54:00;;;;;;;19.67;10.45;;;;;;;-146.25;98.80;52270.88;2073450;28;21025;-72
2023/04/21 03:55:07;;;;;;;19.00;11.05;;;;;;;-146.25;98.71;52260.72;2071560;28;35629;-72
2023/04/21 03:56:11;;;;;;;17.88;10.88;;;;;;;-146.25;98.89;52246.53;2071230;28;33299;-72
2023/04/21 03:57:14;;;;;;;19.38;10.70;;;;;;;-146.25;98.91;52218.16;2071765;28;33043;-72
2023/04/21 03:58:16;;;;;;;17.30;10.45;;;;;;;-146.25;98.75;52244.50;2071541;28;33547;-72
2023/04/21 03:59:20;;;;;;;17.98;11.45;;;;;;;-146.25;98.80;52246.53;2071620;28;27987;-72
2023/04/21 04:00:24;;;;;;;17.35;10.10;;;;;;;-146.25;99.19;52291.16;2072234;28;20425;-71
2023/04/21 04:01:26;;;;;;;19.23;10.98;;;;;;;-146.25;98.96;52238.44;2071994;28;38945;-72
2023/04/21 04:02:30;;;;;;;18.83;11.13;;;;;;;-146.25;98.96;52258.72;2079426;28;32521;-71
2023/04/21 04:03:33;;;;;;;14.68;10.50;;;;;;;-146.25;99.24;52260.72;2079090;28;35203;-72
2023/04/21 04:04:35;;;;;;;16.73;10.60;;;;;;;-146.25;99.26;52293.19;2072385;28;33673;-72
2023/04/21 04:05:37;;;;;;;19.08;10.25;;;;;;;-146.25;99.40;52244.50;2071456;28;34045;-72
2023/04/21 04:06:39;;;;;;;14.38;10.35;;;;;;;-146.25;99.40;52222.22;2071590;28;34842;-72
2023/04/21 04:07:41;;;;;;;18.65;10.70;;;;;;;-146.25;99.52;52258.72;2071465;28;36506;-72
2023/04/21 04:08:43;;;;;;;19.27;11.10;;;;;;;-146.25;99.26;52276.97;2071964;28;31707;-72
2023/04/21 04:09:49;;;;;;;19.73;9.95;;;;;;;-146.25;99.49;52270.88;2072387;28;34200;-72
2023/04/21 04:10:51;;;;;;;16.02;10.23;;;;;;;-146.25;99.62;52274.94;2072161;28;36787;-72
2023/04/21 04:11:52;;;;;;;13.20;10.23;;;;;;;-146.25;99.73;52197.88;2071964;28;34884;-72
2023/04/21 04:12:54;;;;;;;15.77;10.40;;;;;;;-146.25;99.52;52242.50;2072224;28;29356;-72
2023/04/21 04:13:57;;;;;;;16.65;10.50;;;;;;;-146.25;99.41;52270.88;2071984;28;35166;-72
2023/04/21 04:14:58;;;;;;;17.13;9.48;;;;;;;-146.25;98.97;52299.25;2072017;28;35797;-72
2023/04/21 04:16:00;;;;;;;16.33;10.25;;;;;;;-146.25;99.08;52274.94;2072532;28;36292;-72
2023/04/21 04:17:02;;;;;;;15.02;9.73;;;;;;;-146.25;99.16;52236.41;2072002;28;33191;-72
2023/04/21 04:18:04;;;;;;;18.45;10.85;;;;;;;-146.25;99.10;52232.34;2071882;28;36680;-72
2023/04/21 04:19:07;;;;;;;17.10;10.30;;;;;;;-146.25;99.02;52260.72;2079972;28;29703;-72
2023/04/21 04:20:09;;;;;;;19.02;10.60;;;;;;;-146.25;99.04;52291.16;2079084;28;34551;-72
2023/04/21 04:21:13;;;;;;;17.98;10.18;;;;;;;-146.25;98.91;52281.00;2072195;28;36644;-72
2023/04/21 04:22:15;;;;;;;14.13;10.00;;;;;;;-146.25;99.01;52266.81;2072450;28;20074;-72
2023/04/21 04:23:16;;;;;;;20.02;10.70;;;;;;;-146.25;99.15;52250.59;2071496;28;31554;-72
2023/04/21 04:24:18;;;;;;;17.77;10.35;;;;;;;-146.25;99.08;52234.38;2071632;28;34811;-72
2023/04/21 04:25:20;;;;;;;18.00;10.43;;;;;;;-146.25;99.03;52236.41;2071434;28;36063;-72
2023/04/21 04:26:23;;;;;;;19.17;10.65;;;;;;;-146.25;99.06;52266.81;2071688;28;30449;-72
2023/04/21 04:27:25;;;;;;;12.77;9.70;;;;;;;-146.25;98.99;52248.56;2079382;28;30920;-72
2023/04/21 04:28:29;;;;;;;21.85;10.70;;;;;;;-146.25;98.98;52258.72;2071285;28;37843;-73
2023/04/21 04:29:31;;;;;;;13.93;9.68;;;;;;;-146.25;98.94;52254.66;2071498;28;34455;-72
2023/04/21 04:30:34;;;;;;;21.80;10.73;;;;;;;-146.25;99.03;52270.88;2071260;28;33921;-72
2023/04/21 04:31:36;;;;;;;17.92;10.48;;;;;;;-146.25;98.92;52256.69;2072112;28;35321;-72
2023/04/21 04:32:38;;;;;;;17.55;10.30;;;;;;;-146.25;98.70;52250.59;2071741;28;31853;-72
2023/04/21 04:33:43;;;;;;;15.07;9.52;;;;;;;-146.25;98.92;52252.63;2072127;28;32485;-72
2023/04/21 04:34:45;;;;;;;15.25;9.75;;;;;;;-146.25;98.53;52228.28;2071086;28;39766;-72
2023/04/21 04:35:47;;;;;;;15.43;10.23;;;;;;;-146.25;98.40;52220.19;2071485;28;36227;-72
2023/04/21 04:36:50;;;;;;;16.00;9.30;;;;;;;-146.25;97.77;52246.53;2071318;28;33962;-72
2023/04/21 04:37:53;;;;;;;18.65;9.93;;;;;;;-146.25;97.43;52234.38;2079334;28;32242;-72
2023/04/21 04:38:55;;;;;;;18.85;9.73;;;;;;;-146.25;96.69;52246.53;2079864;28;20095;-72
2023/04/21 04:39:59;;;;;;;15.82;9.00;;;;;;;-146.25;96.69;52262.75;2072151;28;36196;-72
2023/04/21 04:41:01;;;;;;;17.48;9.88;;;;;;;-146.25;96.61;52262.75;2071939;28;34728;-72